Terminal Aerodrome Forecast
Issued by NWS Greer, SC

Home | Current Version | Previous Version | Text Only | Print | Product List | Glossary On
Versions: 1 2 3 4 5 6 7 8 9 10 11 12 13
000
FTUS42 KGSP 122326
TAFGSP
TAF
KGSP 122326Z 1300/1324 29011G19KT P6SM SKC
     FM130300 30006KT P6SM SKC
     FM131400 24006KT P6SM SKC
     FM131800 22012G20KT P6SM FEW250=

USA.gov is the U.S. government's official web portal to all federal, state and local government web resources and services.